createdAt,value
2017-09-26T00:00:14.967Z,81.00
2017-09-26T00:02:42.437Z,81.10
2017-09-26T00:05:10.698Z,81.10
2017-09-26T00:07:38.170Z,81.10
2017-09-26T00:10:06.421Z,81.10
2017-09-26T00:12:33.937Z,81.10
2017-09-26T00:15:01.410Z,81.30
2017-09-26T00:17:28.898Z,81.20
2017-09-26T00:19:56.367Z,81.20
2017-09-26T00:22:24.627Z,81.50
2017-09-26T00:24:52.104Z,81.30
2017-09-26T00:27:20.358Z,81.40
2017-09-26T00:29:47.826Z,81.40
2017-09-26T00:32:15.302Z,81.50
2017-09-26T00:34:43.545Z,81.30
2017-09-26T00:37:11.018Z,81.20
2017-09-26T00:39:39.267Z,81.30
2017-09-26T00:42:06.735Z,81.30
2017-09-26T00:44:34.249Z,81.30
2017-09-26T00:47:01.718Z,81.50
2017-09-26T00:49:29.194Z,81.50
2017-09-26T00:51:56.669Z,81.70
2017-09-26T00:54:24.144Z,81.70
2017-09-26T00:56:52.386Z,82.00
2017-09-26T00:59:19.864Z,81.90
2017-09-26T01:01:47.338Z,82.10
2017-09-26T01:04:16.462Z,82.20
2017-09-26T01:09:46.451Z,81.60
2017-09-26T01:12:13.925Z,82.60
2017-09-26T01:14:42.170Z,81.60
2017-09-26T01:17:09.650Z,81.60
2017-09-26T01:19:37.890Z,82.90
2017-09-26T01:22:05.366Z,82.00
2017-09-26T01:24:32.842Z,82.10
2017-09-26T01:27:01.077Z,82.10
2017-09-26T01:29:28.549Z,82.00
2017-09-26T01:31:56.050Z,82.10
2017-09-26T01:34:23.522Z,81.90
2017-09-26T01:36:51.003Z,82.00
2017-09-26T01:39:18.474Z,82.30
2017-09-26T01:41:46.082Z,82.30
2017-09-26T01:44:13.673Z,82.60
2017-09-26T01:46:41.144Z,82.60
2017-09-26T01:49:08.617Z,82.80
2017-09-26T01:51:36.099Z,82.80
2017-09-26T01:54:03.574Z,82.20
2017-09-26T01:56:31.065Z,82.70
2017-09-26T02:02:01.927Z,82.90
2017-09-26T02:04:29.393Z,82.70
2017-09-26T02:06:56.896Z,82.80
2017-09-26T02:09:24.388Z,82.70
2017-09-26T02:11:52.650Z,82.50
2017-09-26T02:14:20.196Z,82.40
2017-09-26T02:16:47.670Z,82.40
2017-09-26T02:19:15.138Z,82.50
2017-09-26T02:21:42.628Z,82.50
2017-09-26T02:24:10.869Z,82.80
2017-09-26T02:26:38.346Z,82.70
2017-09-26T02:29:05.907Z,82.60
2017-09-26T02:31:33.382Z,82.90
2017-09-26T02:34:01.645Z,83.10
2017-09-26T02:36:29.186Z,83.00
2017-09-26T02:38:56.663Z,83.30
2017-09-26T02:41:24.907Z,83.30
2017-09-26T02:43:53.148Z,83.50
2017-09-26T02:46:20.631Z,83.40
2017-09-26T02:48:48.102Z,83.60
2017-09-26T02:51:15.606Z,83.80
2017-09-26T02:53:43.081Z,83.60
2017-09-26T02:56:10.549Z,83.60
2017-09-26T02:58:38.028Z,83.50
2017-09-26T03:01:05.522Z,83.20
2017-09-26T03:03:33.758Z,83.20
2017-09-26T03:06:01.227Z,84.00
2017-09-26T03:08:28.707Z,83.20
2017-09-26T03:10:56.943Z,83.60
2017-09-26T03:13:24.420Z,83.60
2017-09-26T03:15:51.984Z,83.60
2017-09-26T03:18:19.458Z,83.70
2017-09-26T03:20:47.726Z,83.70
2017-09-26T03:23:15.990Z,83.70
2017-09-26T03:25:43.468Z,83.50
2017-09-26T03:28:11.830Z,83.70
2017-09-26T03:30:40.067Z,83.70
2017-09-26T03:33:07.605Z,83.50
2017-09-26T03:35:35.077Z,83.60
2017-09-26T03:38:02.556Z,83.50
2017-09-26T03:40:30.044Z,83.30
2017-09-26T03:42:58.277Z,83.40
2017-09-26T03:45:25.762Z,83.30
2017-09-26T03:47:53.230Z,83.40
2017-09-26T03:50:21.470Z,83.60
2017-09-26T03:52:48.948Z,83.40
2017-09-26T03:55:16.497Z,83.80
2017-09-26T03:57:43.969Z,83.60
2017-09-26T04:00:12.228Z,84.00
2017-09-26T04:02:39.730Z,83.40
2017-09-26T04:05:07.658Z,83.40
2017-09-26T04:07:35.288Z,83.40
2017-09-26T04:10:02.826Z,83.40
2017-09-26T04:12:30.467Z,83.20
2017-09-26T04:14:58.838Z,83.30
2017-09-26T04:17:27.254Z,83.50
2017-09-26T04:19:54.898Z,83.50
2017-09-26T04:22:22.486Z,83.60
2017-09-26T04:24:50.724Z,83.60
2017-09-26T04:27:18.214Z,83.40
2017-09-26T04:29:45.682Z,83.60
2017-09-26T04:32:13.172Z,83.70
2017-09-26T04:34:41.435Z,83.60
2017-09-26T04:37:08.967Z,83.40
2017-09-26T04:39:36.445Z,83.70
2017-09-26T04:42:03.917Z,83.50
2017-09-26T04:44:31.400Z,83.30
2017-09-26T04:46:59.645Z,83.20
2017-09-26T04:49:27.152Z,83.10
2017-09-26T04:51:54.639Z,84.40
2017-09-26T04:54:22.111Z,83.40
2017-09-26T04:56:49.621Z,83.10
2017-09-26T04:59:17.092Z,83.10
2017-09-26T05:01:44.559Z,83.00
2017-09-26T05:04:12.071Z,82.90
2017-09-26T05:06:39.541Z,82.90
2017-09-26T05:09:07.023Z,82.90
2017-09-26T05:11:34.504Z,82.80
2017-09-26T05:14:01.979Z,82.60
2017-09-26T05:16:30.236Z,83.00
2017-09-26T05:18:57.709Z,82.60
2017-09-26T05:21:25.960Z,83.00
2017-09-26T05:23:53.435Z,82.60
2017-09-26T05:26:20.927Z,82.80
2017-09-26T05:28:48.397Z,82.80
2017-09-26T05:31:15.873Z,82.60
2017-09-26T05:33:43.351Z,82.70
2017-09-26T05:36:10.846Z,82.70
2017-09-26T05:38:39.093Z,82.50
2017-09-26T05:41:06.560Z,82.40
2017-09-26T05:43:34.806Z,82.20
2017-09-26T05:46:02.278Z,82.20
2017-09-26T05:48:29.762Z,82.10
2017-09-26T05:50:57.989Z,81.90
2017-09-26T05:53:25.506Z,81.90
2017-09-26T05:55:53.030Z,82.00
2017-09-26T05:58:21.296Z,82.10
2017-09-26T06:00:48.786Z,82.10
2017-09-26T06:03:16.261Z,82.00
2017-09-26T06:05:43.778Z,82.00
2017-09-26T06:08:11.264Z,82.00
2017-09-26T06:10:38.743Z,81.80
2017-09-26T06:13:06.249Z,81.60
2017-09-26T06:15:33.738Z,81.60
2017-09-26T06:18:01.210Z,81.90
2017-09-26T06:20:28.718Z,81.50
2017-09-26T06:22:56.294Z,81.70
2017-09-26T06:25:24.558Z,81.80
2017-09-26T06:27:52.115Z,81.60
2017-09-26T06:30:19.597Z,82.00
2017-09-26T06:32:47.135Z,82.20
2017-09-26T06:35:15.405Z,82.50
2017-09-26T06:37:42.966Z,81.90
2017-09-26T06:40:10.474Z,82.20
2017-09-26T06:42:37.954Z,82.10
2017-09-26T06:45:05.430Z,82.10
2017-09-26T06:47:32.911Z,82.10
2017-09-26T06:50:01.160Z,81.60
2017-09-26T06:52:28.742Z,81.60
2017-09-26T06:54:57.056Z,81.50
2017-09-26T06:57:24.533Z,81.40
2017-09-26T06:59:52.022Z,81.50
2017-09-26T07:02:20.351Z,82.20
2017-09-26T07:04:47.821Z,81.30
2017-09-26T07:07:15.302Z,81.30
2017-09-26T07:09:42.921Z,80.90
2017-09-26T07:12:10.423Z,81.70
2017-09-26T07:14:37.904Z,81.10
2017-09-26T07:17:05.403Z,81.00
2017-09-26T07:19:32.904Z,81.20
2017-09-26T07:22:01.155Z,81.30
2017-09-26T07:24:29.407Z,81.10
2017-09-26T07:26:56.954Z,81.10
2017-09-26T07:29:24.467Z,80.90
2017-09-26T07:31:51.934Z,80.80
2017-09-26T07:34:20.298Z,81.20
2017-09-26T07:36:47.861Z,80.30
2017-09-26T07:39:16.109Z,80.00
2017-09-26T07:41:43.594Z,80.00
2017-09-26T07:44:11.853Z,80.10
2017-09-26T07:46:39.422Z,80.10
2017-09-26T07:49:06.990Z,79.80
2017-09-26T07:51:35.232Z,80.70
2017-09-26T07:54:02.702Z,79.90
2017-09-26T07:56:30.270Z,80.00
2017-09-26T07:58:57.880Z,79.00
2017-09-26T08:01:25.584Z,78.60
2017-09-26T08:03:53.175Z,78.40
2017-09-26T08:06:21.532Z,78.20
2017-09-26T08:08:49.903Z,77.70
2017-09-26T08:11:17.365Z,78.30
2017-09-26T08:13:44.854Z,79.00
2017-09-26T08:16:12.533Z,78.60
2017-09-26T08:18:40.033Z,78.80
2017-09-26T08:21:07.598Z,78.70
2017-09-26T08:23:35.874Z,78.30
2017-09-26T08:26:04.145Z,78.10
2017-09-26T08:28:31.618Z,77.90
2017-09-26T08:30:59.853Z,77.90
2017-09-26T08:33:27.368Z,77.80
2017-09-26T08:35:55.603Z,77.60
2017-09-26T08:38:23.174Z,77.50
2017-09-26T08:40:50.642Z,76.80
2017-09-26T08:43:18.902Z,76.20
2017-09-26T08:45:46.468Z,76.00
2017-09-26T08:48:13.933Z,75.80
2017-09-26T08:50:42.202Z,76.30
2017-09-26T08:53:09.753Z,76.30
2017-09-26T08:55:37.314Z,75.60
2017-09-26T08:58:04.873Z,75.70
2017-09-26T09:00:32.357Z,75.80
2017-09-26T09:03:00.656Z,76.40
2017-09-26T09:05:28.127Z,76.30
2017-09-26T09:07:55.601Z,76.30
2017-09-26T09:10:23.181Z,76.00
2017-09-26T09:12:50.747Z,75.10
2017-09-26T09:15:18.231Z,75.00
2017-09-26T09:17:45.761Z,75.20
2017-09-26T09:20:13.313Z,75.20
2017-09-26T09:22:40.866Z,75.20
2017-09-26T09:25:08.338Z,74.00
2017-09-26T09:27:36.578Z,72.20
2017-09-26T09:30:04.044Z,72.00
2017-09-26T09:32:31.516Z,72.70
2017-09-26T09:34:59.076Z,72.60
2017-09-26T09:37:26.641Z,72.60
2017-09-26T09:39:54.883Z,72.90
2017-09-26T09:42:22.463Z,72.10
2017-09-26T09:44:50.748Z,72.50
2017-09-26T09:47:18.225Z,72.40
2017-09-26T09:49:46.454Z,72.30
2017-09-26T09:52:13.961Z,72.30
2017-09-26T09:54:41.438Z,72.20
2017-09-26T09:57:08.906Z,72.50
2017-09-26T09:59:36.397Z,72.70
2017-09-26T10:02:04.638Z,72.00
2017-09-26T10:04:32.113Z,72.00
2017-09-26T10:06:59.578Z,71.80
2017-09-26T10:09:27.147Z,71.50
2017-09-26T10:11:54.710Z,71.70
2017-09-26T10:14:22.215Z,72.30
2017-09-26T10:16:49.696Z,71.10
2017-09-26T10:19:17.215Z,70.80
2017-09-26T10:21:44.789Z,71.10
2017-09-26T10:24:12.254Z,71.60
2017-09-26T10:26:39.717Z,71.40
2017-09-26T10:29:07.181Z,71.10
2017-09-26T10:31:37.318Z,71.00
2017-09-26T10:34:04.879Z,71.20
2017-09-26T10:36:32.442Z,71.30
2017-09-26T10:39:00.009Z,71.50
2017-09-26T10:41:27.482Z,71.10
2017-09-26T10:43:57.293Z,71.50
2017-09-26T10:46:25.396Z,71.50
2017-09-26T10:48:52.905Z,71.90
2017-09-26T10:51:20.398Z,71.70
2017-09-26T10:53:47.873Z,71.30
2017-09-26T10:56:15.411Z,71.70
2017-09-26T10:58:44.212Z,71.80
2017-09-26T11:01:12.591Z,71.00
2017-09-26T11:03:40.062Z,71.00
2017-09-26T11:06:07.609Z,70.50
2017-09-26T11:08:35.119Z,69.80
2017-09-26T11:11:02.586Z,70.10
2017-09-26T11:13:30.983Z,69.10
2017-09-26T11:15:58.513Z,69.10
2017-09-26T11:18:25.986Z,69.90
2017-09-26T11:20:54.238Z,69.10
2017-09-26T11:23:21.753Z,68.90
2017-09-26T11:25:49.222Z,69.30
2017-09-26T11:28:16.695Z,69.50
2017-09-26T11:30:44.172Z,69.80
2017-09-26T11:33:11.643Z,69.70
2017-09-26T11:35:39.888Z,68.10
2017-09-26T11:38:07.357Z,67.90
2017-09-26T11:40:34.837Z,68.30
2017-09-26T11:43:03.070Z,68.40
2017-09-26T11:45:30.543Z,68.40
2017-09-26T11:47:58.011Z,68.50
2017-09-26T11:50:25.504Z,68.20
2017-09-26T11:52:52.966Z,68.50
2017-09-26T11:55:20.425Z,68.70
2017-09-26T11:57:47.913Z,68.70
2017-09-26T12:00:15.382Z,68.60
2017-09-26T12:02:42.851Z,68.30
2017-09-26T12:05:11.166Z,66.60
2017-09-26T12:07:38.635Z,66.50
2017-09-26T12:10:06.117Z,66.10
2017-09-26T12:12:33.590Z,65.80
2017-09-26T12:15:01.057Z,65.30
2017-09-26T12:17:29.306Z,64.00
2017-09-26T12:19:56.826Z,64.00
2017-09-26T12:22:24.329Z,63.20
2017-09-26T12:24:51.793Z,62.00
2017-09-26T12:27:19.261Z,61.30
2017-09-26T12:29:47.503Z,61.90
2017-09-26T12:32:14.975Z,61.70
2017-09-26T12:34:42.455Z,61.00
2017-09-26T12:37:10.688Z,60.30
2017-09-26T12:39:38.160Z,60.20
2017-09-26T12:42:05.629Z,59.90
2017-09-26T12:44:33.102Z,60.90
2017-09-26T12:47:01.362Z,61.60
2017-09-26T12:49:28.850Z,61.60
2017-09-26T12:51:56.328Z,60.90
2017-09-26T12:54:23.806Z,61.00
2017-09-26T12:56:51.277Z,61.70
2017-09-26T12:59:18.750Z,62.10
2017-09-26T13:01:46.988Z,63.10
2017-09-26T13:04:14.479Z,63.10
2017-09-26T13:06:42.710Z,63.50
2017-09-26T13:09:10.322Z,63.60
2017-09-26T13:11:38.613Z,63.40
2017-09-26T13:14:06.866Z,63.40
2017-09-26T13:16:35.184Z,63.70
2017-09-26T13:19:02.669Z,63.70
2017-09-26T13:21:30.155Z,63.70
2017-09-26T13:23:57.618Z,63.20
2017-09-26T13:26:25.872Z,63.20
2017-09-26T13:28:53.347Z,63.10
2017-09-26T13:31:20.818Z,62.60
2017-09-26T13:33:49.054Z,61.70
2017-09-26T13:36:16.576Z,61.70
2017-09-26T13:38:44.074Z,61.90
2017-09-26T13:41:11.545Z,61.20
2017-09-26T13:43:39.011Z,62.00
2017-09-26T13:46:07.270Z,62.30
2017-09-26T13:48:34.733Z,62.20
2017-09-26T13:51:02.206Z,61.70
2017-09-26T13:53:30.506Z,61.20
2017-09-26T13:55:58.018Z,61.20
2017-09-26T13:58:25.504Z,60.90
2017-09-26T14:00:52.980Z,61.20
2017-09-26T14:03:20.463Z,61.20
2017-09-26T14:05:47.934Z,61.50
2017-09-26T14:08:15.402Z,61.90
2017-09-26T14:10:42.884Z,61.80
2017-09-26T14:13:11.130Z,62.00
2017-09-26T14:15:38.616Z,62.00
2017-09-26T14:18:06.119Z,62.00
2017-09-26T14:20:33.590Z,62.50
2017-09-26T14:23:01.089Z,61.80
2017-09-26T14:25:29.328Z,60.30
2017-09-26T14:27:56.828Z,60.10
2017-09-26T14:30:24.293Z,59.90
2017-09-26T14:32:51.766Z,60.30
2017-09-26T14:35:19.242Z,59.80
2017-09-26T14:37:46.720Z,59.60
2017-09-26T14:40:14.190Z,59.50
2017-09-26T14:42:42.434Z,58.60
2017-09-26T14:45:09.906Z,58.40
2017-09-26T14:47:37.382Z,58.70
2017-09-26T14:50:05.634Z,59.80
2017-09-26T14:52:33.211Z,59.70
2017-09-26T14:55:00.682Z,60.90
2017-09-26T14:57:28.919Z,61.80
2017-09-26T14:59:56.414Z,61.70
2017-09-26T15:02:24.664Z,62.30
2017-09-26T15:04:52.131Z,62.30
2017-09-26T15:07:19.601Z,62.90
2017-09-26T15:09:47.834Z,63.20
2017-09-26T15:12:15.319Z,63.20
2017-09-26T15:14:42.782Z,64.00
2017-09-26T15:17:11.034Z,63.50
2017-09-26T15:19:38.502Z,63.40
2017-09-26T15:22:05.974Z,63.20
2017-09-26T15:24:34.213Z,61.70
2017-09-26T15:27:01.685Z,61.50
2017-09-26T15:29:29.159Z,61.30
2017-09-26T15:31:57.402Z,60.80
2017-09-26T15:34:24.874Z,60.60
2017-09-26T15:36:52.383Z,60.70
2017-09-26T15:39:19.862Z,60.90
2017-09-26T15:41:47.337Z,61.60
2017-09-26T15:44:14.802Z,61.20
2017-09-26T15:46:42.283Z,61.60
2017-09-26T15:49:10.595Z,60.50
2017-09-26T15:51:38.072Z,60.40
2017-09-26T15:54:05.560Z,59.90
2017-09-26T15:56:33.034Z,59.70
2017-09-26T15:59:01.271Z,60.30
2017-09-26T16:01:28.776Z,60.10
2017-09-26T16:03:56.249Z,60.00
2017-09-26T16:06:23.739Z,60.00
2017-09-26T16:08:51.246Z,60.20
2017-09-26T16:11:18.717Z,60.50
2017-09-26T16:13:46.380Z,60.60
2017-09-26T16:16:13.846Z,60.80
2017-09-26T16:18:41.330Z,60.30
2017-09-26T16:21:08.835Z,61.60
2017-09-26T16:23:36.323Z,61.70
2017-09-26T16:26:03.800Z,61.70
2017-09-26T16:28:31.270Z,62.20
2017-09-26T16:30:58.833Z,62.80
2017-09-26T16:33:26.328Z,63.30
2017-09-26T16:35:53.854Z,63.80
2017-09-26T16:38:21.351Z,64.20
2017-09-26T16:40:48.823Z,63.90
2017-09-26T16:43:16.304Z,64.90
2017-09-26T16:45:43.774Z,65.40
2017-09-26T16:48:12.010Z,66.50
2017-09-26T16:50:39.487Z,66.40
2017-09-26T16:53:07.061Z,66.50
2017-09-26T16:55:35.367Z,66.90
2017-09-26T16:58:03.598Z,67.30
2017-09-26T17:00:31.179Z,67.20
2017-09-26T17:02:58.690Z,67.60
2017-09-26T17:05:26.158Z,67.90
2017-09-26T17:07:53.646Z,68.00
2017-09-26T17:10:21.921Z,68.50
2017-09-26T17:12:50.904Z,68.70
2017-09-26T17:15:18.376Z,68.60
2017-09-26T17:17:45.847Z,68.80
2017-09-26T17:20:14.074Z,69.80
2017-09-26T17:22:41.611Z,69.70
2017-09-26T17:25:09.084Z,70.00
2017-09-26T17:27:36.553Z,70.20
2017-09-26T17:30:04.018Z,70.40
2017-09-26T17:32:31.605Z,70.50
2017-09-26T17:34:59.915Z,70.20
2017-09-26T17:37:27.394Z,70.20
2017-09-26T17:39:54.865Z,70.10
2017-09-26T17:42:22.330Z,70.30
2017-09-26T17:44:49.810Z,70.30
2017-09-26T17:47:18.065Z,70.30
2017-09-26T17:49:45.626Z,70.30
2017-09-26T17:52:13.870Z,70.30
2017-09-26T17:54:41.338Z,70.20
2017-09-26T17:57:08.797Z,70.40
2017-09-26T17:59:36.265Z,70.30
2017-09-26T18:02:03.740Z,70.40
2017-09-26T18:04:32.002Z,71.20
2017-09-26T18:06:59.613Z,70.60
2017-09-26T18:09:27.085Z,70.50
2017-09-26T18:11:54.559Z,70.60
2017-09-26T18:14:22.037Z,70.60
2017-09-26T18:16:49.507Z,70.80
2017-09-26T18:19:17.753Z,71.40
2017-09-26T18:21:45.224Z,71.40
2017-09-26T18:24:12.783Z,71.50
2017-09-26T18:29:14.986Z,71.30
2017-09-26T18:31:42.482Z,71.50
2017-09-26T18:34:10.086Z,72.50
2017-09-26T18:36:37.554Z,71.80
2017-09-26T18:39:05.106Z,71.50
2017-09-26T18:41:32.579Z,71.70
2017-09-26T18:44:00.813Z,71.90
2017-09-26T18:46:28.299Z,71.90
2017-09-26T18:48:56.545Z,72.20
2017-09-26T18:51:24.454Z,72.00
2017-09-26T18:53:52.351Z,72.30
2017-09-26T18:56:19.859Z,72.40
2017-09-26T18:58:48.130Z,72.90
2017-09-26T19:01:16.370Z,73.00
2017-09-26T19:03:43.858Z,73.10
2017-09-26T19:06:12.248Z,73.30
2017-09-26T19:08:40.553Z,73.50
2017-09-26T19:11:08.049Z,73.40
2017-09-26T19:13:35.658Z,73.40
2017-09-26T19:16:03.157Z,73.60
2017-09-26T19:18:30.910Z,73.70
2017-09-26T19:20:58.386Z,73.90
2017-09-26T19:23:25.870Z,74.20
2017-09-26T19:25:53.445Z,73.80
2017-09-26T19:28:21.681Z,73.90
2017-09-26T19:30:49.399Z,73.80
2017-09-26T19:33:16.907Z,73.70
2017-09-26T19:35:44.483Z,74.10
2017-09-26T19:38:12.830Z,74.90
2017-09-26T19:40:40.310Z,73.90
2017-09-26T19:43:07.806Z,74.20
2017-09-26T19:45:35.598Z,74.60
2017-09-26T19:48:03.170Z,74.50
2017-09-26T19:50:31.445Z,74.40
2017-09-26T19:52:58.929Z,74.30
2017-09-26T19:55:27.249Z,74.40
2017-09-26T19:57:54.754Z,74.40
2017-09-26T20:00:22.236Z,74.00
2017-09-26T20:02:50.485Z,73.90
2017-09-26T20:05:18.050Z,73.80
2017-09-26T20:07:47.034Z,73.90
2017-09-26T20:10:14.599Z,73.90
2017-09-26T20:12:42.124Z,73.90
2017-09-26T20:15:09.622Z,74.10
2017-09-26T20:17:37.865Z,74.50
2017-09-26T20:20:05.466Z,74.00
2017-09-26T20:22:33.779Z,74.00
2017-09-26T20:25:01.265Z,73.90
2017-09-26T20:27:28.750Z,74.00
2017-09-26T20:29:57.009Z,74.40
2017-09-26T20:32:25.309Z,73.90
2017-09-26T20:34:53.573Z,73.90
2017-09-26T20:37:21.050Z,73.90
2017-09-26T20:39:48.522Z,73.10
2017-09-26T20:42:16.002Z,73.90
2017-09-26T20:44:43.549Z,74.00
2017-09-26T20:47:11.060Z,73.90
2017-09-26T20:49:38.667Z,74.00
2017-09-26T20:52:06.170Z,74.00
2017-09-26T20:54:33.695Z,74.10
2017-09-26T20:57:01.171Z,73.90
2017-09-26T20:59:28.655Z,73.90
2017-09-26T21:01:56.903Z,74.00
2017-09-26T21:04:24.743Z,73.90
2017-09-26T21:06:52.242Z,73.90
2017-09-26T21:09:19.711Z,74.10
2017-09-26T21:11:47.957Z,74.40
2017-09-26T21:14:15.538Z,74.30
2017-09-26T21:16:43.070Z,74.80
2017-09-26T21:19:10.559Z,75.00
2017-09-26T21:21:38.812Z,75.20
2017-09-26T21:24:06.290Z,75.00
2017-09-26T21:26:34.529Z,75.20
2017-09-26T21:29:02.035Z,75.10
2017-09-26T21:31:30.271Z,75.20
2017-09-26T21:33:57.751Z,75.20
2017-09-26T21:36:26.002Z,75.30
2017-09-26T21:38:53.478Z,75.20
2017-09-26T21:41:20.954Z,75.30
2017-09-26T21:43:49.196Z,75.50
2017-09-26T21:46:16.682Z,75.40
2017-09-26T21:48:44.943Z,75.80
2017-09-26T21:51:12.566Z,75.70
2017-09-26T21:53:40.103Z,76.60
2017-09-26T21:56:07.597Z,75.80
2017-09-26T21:58:35.090Z,75.80
2017-09-26T22:01:03.449Z,75.90
2017-09-26T22:03:30.927Z,75.80
2017-09-26T22:05:59.162Z,76.00
2017-09-26T22:08:26.763Z,75.80
2017-09-26T22:10:54.305Z,76.00
2017-09-26T22:13:21.836Z,76.10
2017-09-26T22:15:49.323Z,76.20
2017-09-26T22:18:17.577Z,76.50
2017-09-26T22:20:51.449Z,76.50
2017-09-26T22:23:18.926Z,76.40
2017-09-26T22:25:46.401Z,76.50
2017-09-26T22:28:13.886Z,76.40
2017-09-26T22:30:42.126Z,76.50
2017-09-26T22:33:09.631Z,76.50
2017-09-26T22:35:37.106Z,76.70
2017-09-26T22:38:04.582Z,76.80
2017-09-26T22:40:32.077Z,76.80
2017-09-26T22:43:00.322Z,76.90
2017-09-26T22:45:28.436Z,76.90
2017-09-26T22:47:56.702Z,77.30
2017-09-26T22:50:25.022Z,77.40
2017-09-26T22:52:52.489Z,77.40
2017-09-26T22:55:20.036Z,77.50
2017-09-26T22:57:47.519Z,77.50
2017-09-26T23:00:14.998Z,77.60
2017-09-26T23:02:42.516Z,77.70
2017-09-26T23:05:10.015Z,77.90
2017-09-26T23:07:37.482Z,78.00
2017-09-26T23:10:05.726Z,78.10
2017-09-26T23:12:33.205Z,78.10
2017-09-26T23:15:00.669Z,78.30
2017-09-26T23:17:28.926Z,78.40
2017-09-26T23:19:56.440Z,78.30
2017-09-26T23:22:23.913Z,78.50
2017-09-26T23:24:51.456Z,78.30
2017-09-26T23:27:18.929Z,78.50
2017-09-26T23:29:46.399Z,79.20
2017-09-26T23:32:13.874Z,78.70
2017-09-26T23:34:41.378Z,78.70
2017-09-26T23:37:09.590Z,78.80
2017-09-26T23:39:37.070Z,78.80
2017-09-26T23:42:05.320Z,78.80
2017-09-26T23:44:32.849Z,78.80
2017-09-26T23:47:00.317Z,78.90
2017-09-26T23:49:27.794Z,78.80
2017-09-26T23:51:55.266Z,79.00
2017-09-26T23:54:22.766Z,79.00
2017-09-26T23:56:50.274Z,78.90
2017-09-26T23:59:17.754Z,78.80
